createdAt,value
2023-05-22T00:01:19.755Z,1011.24
2023-05-22T00:03:04.396Z,1011.14
2023-05-22T00:04:49.431Z,1011.21
2023-05-22T00:06:34.428Z,1011.26
2023-05-22T00:08:19.504Z,1011.26
2023-05-22T00:10:04.409Z,1011.18
2023-05-22T00:11:49.473Z,1011.27
2023-05-22T00:13:34.406Z,1011.35
2023-05-22T00:15:19.424Z,1011.31
2023-05-22T00:17:04.457Z,1011.22
2023-05-22T00:18:49.719Z,1011.28
2023-05-22T00:20:34.437Z,1011.29
2023-05-22T00:22:19.505Z,1011.32
2023-05-22T00:24:04.488Z,1011.3
2023-05-22T00:25:49.429Z,1011.32
2023-05-22T00:27:34.463Z,1011.29
2023-05-22T00:29:19.510Z,1011.31
2023-05-22T00:31:04.427Z,1011.28
2023-05-22T00:32:49.519Z,1011.3
2023-05-22T00:34:34.491Z,1011.41
2023-05-22T00:36:19.442Z,1011.36
2023-05-22T00:38:04.470Z,1011.41
2023-05-22T00:39:49.498Z,1011.25
2023-05-22T00:41:34.464Z,1011.24
2023-05-22T00:43:19.510Z,1011.23
2023-05-22T00:45:04.494Z,1011.26
2023-05-22T00:46:49.485Z,1011.32
2023-05-22T00:48:34.520Z,1011.23
2023-05-22T00:50:19.468Z,1011.26
2023-05-22T00:52:04.483Z,1011.2
2023-05-22T00:53:49.473Z,1011.34
2023-05-22T00:55:34.513Z,1011.17
2023-05-22T00:57:19.460Z,1011.11
2023-05-22T00:59:04.534Z,1011.1
2023-05-22T01:00:49.486Z,1011.19
2023-05-22T01:02:34.494Z,1011.2
2023-05-22T01:04:19.561Z,1011.01
2023-05-22T01:06:04.504Z,1011.08
2023-05-22T01:07:49.478Z,1010.96
2023-05-22T01:09:34.527Z,1011.02
2023-05-22T01:11:19.538Z,1010.99
2023-05-22T01:13:04.507Z,1011
2023-05-22T01:14:49.543Z,1011
2023-05-22T01:16:34.499Z,1011
2023-05-22T01:18:19.499Z,1010.96
2023-05-22T01:20:04.561Z,1010.96
2023-05-22T01:21:49.510Z,1010.93
2023-05-22T01:23:34.499Z,1010.92
2023-05-22T01:25:19.611Z,1010.99
2023-05-22T01:27:04.642Z,1010.87
2023-05-22T01:28:49.513Z,1010.92
2023-05-22T01:30:34.564Z,1010.99
2023-05-22T01:32:19.538Z,1011.02
2023-05-22T01:34:04.564Z,1011.06
2023-05-22T01:35:49.561Z,1011.06
2023-05-22T01:37:34.536Z,1011.05
2023-05-22T01:39:19.568Z,1010.99
2023-05-22T01:41:04.606Z,1011
2023-05-22T01:42:49.557Z,1011.17
2023-05-22T01:44:34.569Z,1011.15
2023-05-22T01:46:19.666Z,1011.09
2023-05-22T01:48:04.560Z,1011.03
2023-05-22T01:49:49.569Z,1011.13
2023-05-22T01:51:34.618Z,1011.09
2023-05-22T01:53:19.558Z,1011.11
2023-05-22T01:55:04.591Z,1011.22
2023-05-22T01:56:49.611Z,1011.19
2023-05-22T01:58:34.603Z,1011.16
2023-05-22T02:00:19.604Z,1011.23
2023-05-22T02:02:04.677Z,1011.18
2023-05-22T02:03:49.614Z,1011.07
2023-05-22T02:05:34.596Z,1011.15
2023-05-22T02:07:19.633Z,1011.1
2023-05-22T02:09:04.599Z,1011.14
2023-05-22T02:10:49.583Z,1011.09
2023-05-22T02:12:34.977Z,1011.03
2023-05-22T02:14:19.914Z,1011.03
2023-05-22T02:16:04.623Z,1011.07
2023-05-22T02:17:49.754Z,1010.91
2023-05-22T02:19:34.676Z,1010.96
2023-05-22T02:21:19.617Z,1011.03
2023-05-22T02:23:04.620Z,1011.07
2023-05-22T02:24:49.599Z,1010.94
2023-05-22T02:26:34.612Z,1010.94
2023-05-22T02:28:19.661Z,1010.87
2023-05-22T02:30:04.950Z,1010.99
2023-05-22T02:31:49.675Z,1010.89
2023-05-22T02:33:34.646Z,1010.9
2023-05-22T02:35:19.610Z,1010.84
2023-05-22T02:37:04.639Z,1010.88
2023-05-22T02:38:49.696Z,1010.83
2023-05-22T02:40:34.637Z,1010.86
2023-05-22T02:42:19.645Z,1010.85
2023-05-22T02:44:04.671Z,1010.83
2023-05-22T02:45:49.651Z,1010.77
2023-05-22T02:47:34.668Z,1010.84
2023-05-22T02:49:19.735Z,1010.84
2023-05-22T02:51:04.653Z,1010.84
2023-05-22T02:52:49.654Z,1010.83
2023-05-22T02:54:34.697Z,1010.82
2023-05-22T02:56:19.670Z,1010.8
2023-05-22T02:58:04.961Z,1010.79
2023-05-22T02:59:49.740Z,1010.81
2023-05-22T03:01:34.750Z,1010.83
2023-05-22T03:03:19.694Z,1010.79
2023-05-22T03:05:04.720Z,1010.78
2023-05-22T03:06:49.647Z,1010.75
2023-05-22T03:08:34.676Z,1010.8
2023-05-22T03:10:19.767Z,1010.77
2023-05-22T03:12:04.675Z,1010.81
2023-05-22T03:13:49.691Z,1010.88
2023-05-22T03:15:34.707Z,1010.82
2023-05-22T03:17:19.695Z,1010.77
2023-05-22T03:19:04.750Z,1010.81
2023-05-22T03:20:49.790Z,1010.77
2023-05-22T03:22:34.700Z,1010.8
2023-05-22T03:24:19.698Z,1010.7
2023-05-22T03:26:04.742Z,1010.79
2023-05-22T03:27:49.700Z,1010.8
2023-05-22T03:29:34.693Z,1010.82
2023-05-22T03:31:19.733Z,1010.83
2023-05-22T03:33:04.791Z,1010.81
2023-05-22T03:34:49.719Z,1010.82
2023-05-22T03:36:34.744Z,1010.85
2023-05-22T03:38:19.713Z,1010.83
2023-05-22T03:40:04.698Z,1010.82
2023-05-22T03:41:49.773Z,1010.83
2023-05-22T03:43:34.707Z,1010.81
2023-05-22T03:45:19.723Z,1010.78
2023-05-22T03:47:05.099Z,1010.8
2023-05-22T03:48:50.075Z,1010.8
2023-05-22T03:50:34.731Z,1010.77
2023-05-22T03:52:19.831Z,1010.76
2023-05-22T03:54:04.751Z,1010.79
2023-05-22T03:55:49.737Z,1010.83
2023-05-22T03:57:34.755Z,1010.79
2023-05-22T03:59:19.765Z,1010.7
2023-05-22T04:01:04.774Z,1010.77
2023-05-22T04:02:49.825Z,1010.7
2023-05-22T04:04:35.094Z,1010.69
2023-05-22T04:06:20.072Z,1010.77
2023-05-22T04:08:04.767Z,1010.74
2023-05-22T04:09:49.743Z,1010.7
2023-05-22T04:11:34.750Z,1010.81
2023-05-22T04:13:19.823Z,1010.79
2023-05-22T04:15:04.798Z,1010.73
2023-05-22T04:16:50.488Z,1010.81
2023-05-22T04:18:34.807Z,1010.83
2023-05-22T04:20:19.820Z,1010.87
2023-05-22T04:22:04.776Z,1010.87
2023-05-22T04:23:49.814Z,1010.83
2023-05-22T04:25:34.779Z,1010.85
2023-05-22T04:27:19.783Z,1010.79
2023-05-22T04:29:04.797Z,1010.88
2023-05-22T04:30:49.825Z,1010.87
2023-05-22T04:32:34.830Z,1010.93
2023-05-22T04:34:19.864Z,1010.89
2023-05-22T04:36:04.831Z,1010.91
2023-05-22T04:37:50.111Z,1011
2023-05-22T04:39:35.122Z,1010.93
2023-05-22T04:41:21.850Z,1010.93
2023-05-22T04:43:04.793Z,1010.9
2023-05-22T04:44:49.875Z,1010.93
2023-05-22T04:46:34.815Z,1011.02
2023-05-22T04:48:19.805Z,1010.9
2023-05-22T04:50:04.833Z,1011.03
2023-05-22T04:51:49.961Z,1010.99
2023-05-22T04:53:34.805Z,1010.93
2023-05-22T04:55:19.829Z,1010.96
2023-05-22T04:57:04.842Z,1010.96
2023-05-22T04:58:49.831Z,1010.86
2023-05-22T05:00:34.932Z,1010.95
2023-05-22T05:02:19.857Z,1010.87
2023-05-22T05:04:04.883Z,1010.9
2023-05-22T05:05:50.147Z,1010.89
2023-05-22T05:07:34.954Z,1010.88
2023-05-22T05:09:19.880Z,1010.89
2023-05-22T05:11:04.867Z,1010.9
2023-05-22T05:12:50.137Z,1010.88
2023-05-22T05:14:34.869Z,1010.82
2023-05-22T05:16:19.876Z,1010.95
2023-05-22T05:18:04.850Z,1010.91
2023-05-22T05:19:49.849Z,1010.89
2023-05-22T05:21:34.929Z,1010.89
2023-05-22T05:23:19.885Z,1011.03
2023-05-22T05:25:04.861Z,1011.02
2023-05-22T05:26:49.881Z,1010.91
2023-05-22T05:28:34.837Z,1010.89
2023-05-22T05:30:20.591Z,1011.04
2023-05-22T05:32:04.903Z,1011.03
2023-05-22T05:33:49.856Z,1011.1
2023-05-22T05:35:34.860Z,1011.05
2023-05-22T05:37:19.902Z,1011.09
2023-05-22T05:39:04.896Z,1011.02
2023-05-22T05:40:49.868Z,1010.94
2023-05-22T05:42:34.884Z,1010.96
2023-05-22T05:44:19.876Z,1010.99
2023-05-22T05:46:04.902Z,1010.99
2023-05-22T05:47:49.957Z,1011.08
2023-05-22T05:49:35.741Z,1011.07
2023-05-22T05:51:19.892Z,1011.07
2023-05-22T05:53:04.902Z,1010.99
2023-05-22T05:54:49.924Z,1011.05
2023-05-22T05:56:34.908Z,1011.09
2023-05-22T05:58:19.965Z,1011.13
2023-05-22T06:00:04.897Z,1011.11
2023-05-22T06:01:49.908Z,1011.12
2023-05-22T06:03:35.000Z,1011.11
2023-05-22T06:05:19.959Z,1011.09
2023-05-22T06:07:04.918Z,1011.11
2023-05-22T06:08:49.956Z,1011.06
2023-05-22T06:10:34.961Z,1011.07
2023-05-22T06:12:19.915Z,1011.19
2023-05-22T06:14:04.957Z,1011.16
2023-05-22T06:15:49.938Z,1011.08
2023-05-22T06:17:34.993Z,1011.07
2023-05-22T06:19:20.080Z,1011.08
2023-05-22T06:21:04.916Z,1011.22
2023-05-22T06:22:49.942Z,1011.26
2023-05-22T06:24:34.968Z,1011.18
2023-05-22T06:26:19.943Z,1011.18
2023-05-22T06:28:04.944Z,1011.25
2023-05-22T06:29:49.961Z,1011.26
2023-05-22T06:31:34.962Z,1011.27
2023-05-22T06:33:20.042Z,1011.23
2023-05-22T06:35:04.986Z,1011.23
2023-05-22T06:36:49.937Z,1011.28
2023-05-22T06:38:34.960Z,1011.26
2023-05-22T06:40:20.280Z,1011.26
2023-05-22T06:42:04.978Z,1011.32
2023-05-22T06:43:49.957Z,1011.32
2023-05-22T06:45:35.012Z,1011.36
2023-05-22T06:47:20.001Z,1011.39
2023-05-22T06:49:04.980Z,1011.4
2023-05-22T06:50:50.069Z,1011.4
2023-05-22T06:52:34.986Z,1011.43
2023-05-22T06:54:20.008Z,1011.41
2023-05-22T06:56:05.033Z,1011.39
2023-05-22T06:57:50.043Z,1011.49
2023-05-22T06:59:34.998Z,1011.46
2023-05-22T07:01:20.016Z,1011.5
2023-05-22T07:03:05.009Z,1011.47
2023-05-22T07:04:50.016Z,1011.42
2023-05-22T07:06:35.055Z,1011.54
2023-05-22T07:08:20.004Z,1011.52
2023-05-22T07:10:05.296Z,1011.58
2023-05-22T07:11:50.026Z,1011.52
2023-05-22T07:13:35.016Z,1011.55
2023-05-22T07:15:20.016Z,1011.58
2023-05-22T07:17:05.063Z,1011.62
2023-05-22T07:18:50.055Z,1011.6
2023-05-22T07:20:35.030Z,1011.65
2023-05-22T07:22:20.064Z,1011.65
2023-05-22T07:24:05.343Z,1011.81
2023-05-22T07:25:50.024Z,1011.69
2023-05-22T07:27:35.081Z,1011.68
2023-05-22T07:29:21.901Z,1011.75
2023-05-22T07:31:05.335Z,1011.82
2023-05-22T07:32:50.068Z,1011.85
2023-05-22T07:34:35.023Z,1011.84
2023-05-22T07:36:20.057Z,1011.84
2023-05-22T07:38:05.390Z,1011.82
2023-05-22T07:39:50.083Z,1011.8
2023-05-22T07:41:35.081Z,1011.81
2023-05-22T07:43:20.072Z,1011.9
2023-05-22T07:45:05.119Z,1011.95
2023-05-22T07:46:50.063Z,1011.9
2023-05-22T07:48:35.058Z,1011.84
2023-05-22T07:50:20.063Z,1011.9
2023-05-22T07:52:05.067Z,1011.91
2023-05-22T07:53:50.117Z,1011.89
2023-05-22T07:55:35.053Z,1011.89
2023-05-22T07:57:20.065Z,1011.94
2023-05-22T07:59:05.125Z,1012.04
2023-05-22T08:00:50.263Z,1012.02
2023-05-22T08:02:35.169Z,1012.07
2023-05-22T08:04:20.169Z,1011.99
2023-05-22T08:06:05.081Z,1012.11
2023-05-22T08:07:50.093Z,1012.06
2023-05-22T08:09:35.101Z,1012.21
2023-05-22T08:11:20.090Z,1012.06
2023-05-22T08:13:05.443Z,1012.15
2023-05-22T08:14:50.162Z,1012.18
2023-05-22T08:16:35.315Z,1012.12
2023-05-22T08:18:20.103Z,1012.22
2023-05-22T08:20:05.220Z,1012.23
2023-05-22T08:21:50.106Z,1012.22
2023-05-22T08:23:35.095Z,1012.24
2023-05-22T08:25:20.224Z,1012.26
2023-05-22T08:27:05.123Z,1012.18
2023-05-22T08:28:50.130Z,1012.25
2023-05-22T08:30:35.163Z,1012.23
2023-05-22T08:32:20.122Z,1012.18
2023-05-22T08:34:05.131Z,1012.24
2023-05-22T08:35:50.195Z,1012.17
2023-05-22T08:37:35.127Z,1012.2
2023-05-22T08:39:20.109Z,1012.28
2023-05-22T08:41:05.466Z,1012.31
2023-05-22T08:42:50.128Z,1012.23
2023-05-22T08:44:35.170Z,1012.35
2023-05-22T08:46:20.527Z,1012.34
2023-05-22T08:48:05.254Z,1012.31
2023-05-22T08:49:50.135Z,1012.35
2023-05-22T08:51:35.230Z,1012.3
2023-05-22T08:53:20.185Z,1012.33
2023-05-22T08:55:05.162Z,1012.3
2023-05-22T08:56:56.578Z,1012.34
2023-05-22T08:58:35.172Z,1012.24
2023-05-22T09:00:20.191Z,1012.37
2023-05-22T09:02:06.613Z,1012.3
2023-05-22T09:03:50.289Z,1012.21
2023-05-22T09:05:35.166Z,1012.24
2023-05-22T09:07:20.243Z,1012.27
2023-05-22T09:09:05.168Z,1012.23
2023-05-22T09:10:50.184Z,1012.24
2023-05-22T09:12:35.234Z,1012.3
2023-05-22T09:14:20.178Z,1012.27
2023-05-22T09:16:05.189Z,1012.3
2023-05-22T09:17:50.296Z,1012.26
2023-05-22T09:19:35.312Z,1012.28
2023-05-22T09:21:29.315Z,1012.27
2023-05-22T09:23:05.252Z,1012.24
2023-05-22T09:24:50.224Z,1012.29
2023-05-22T09:26:35.191Z,1012.26
2023-05-22T09:28:20.241Z,1012.26
2023-05-22T09:30:05.213Z,1012.32
2023-05-22T09:31:50.391Z,1012.35
2023-05-22T09:33:35.250Z,1012.34
2023-05-22T09:35:20.294Z,1012.47
2023-05-22T09:37:05.202Z,1012.38
2023-05-22T09:38:50.263Z,1012.39
2023-05-22T09:40:35.368Z,1012.37
2023-05-22T09:42:20.251Z,1012.4
2023-05-22T09:44:05.231Z,1012.38
2023-05-22T09:45:50.254Z,1012.4
2023-05-22T09:47:35.270Z,1012.45
2023-05-22T09:49:20.338Z,1012.42
2023-05-22T09:51:05.279Z,1012.43
2023-05-22T09:52:50.217Z,1012.42
2023-05-22T09:54:35.255Z,1012.41
2023-05-22T09:56:27.453Z,1012.41
2023-05-22T09:58:05.260Z,1012.4
2023-05-22T09:59:50.573Z,1012.43
2023-05-22T10:01:35.284Z,1012.38
2023-05-22T10:03:20.250Z,1012.36
2023-05-22T10:05:05.305Z,1012.34
2023-05-22T10:06:50.245Z,1012.22
2023-05-22T10:08:35.328Z,1012.34
2023-05-22T10:10:20.328Z,1012.32
2023-05-22T10:12:05.226Z,1012.23
2023-05-22T10:13:50.220Z,1012.24
2023-05-22T10:15:35.301Z,1012.28
2023-05-22T10:17:20.262Z,1012.33
2023-05-22T10:19:05.297Z,1012.38
2023-05-22T10:20:50.284Z,1012.22
2023-05-22T10:22:35.424Z,1012.27
2023-05-22T10:24:20.245Z,1012.28
2023-05-22T10:26:05.302Z,1012.22
2023-05-22T10:27:50.289Z,1012.24
2023-05-22T10:29:35.283Z,1012.26
2023-05-22T10:31:20.332Z,1012.19
2023-05-22T10:33:05.307Z,1012.23
2023-05-22T10:34:50.271Z,1012.23
2023-05-22T10:36:35.352Z,1012.21
2023-05-22T10:38:20.421Z,1012.16
2023-05-22T10:40:05.324Z,1012.22
2023-05-22T10:41:50.362Z,1012.25
2023-05-22T10:43:35.309Z,1012.22
2023-05-22T10:45:20.286Z,1012.23
2023-05-22T10:47:05.374Z,1012.24
2023-05-22T10:48:50.338Z,1012.12
2023-05-22T10:50:35.294Z,1012.2
2023-05-22T10:52:20.331Z,1012.16
2023-05-22T10:54:05.488Z,1012.2
2023-05-22T10:55:50.312Z,1012.2
2023-05-22T10:57:35.378Z,1012.17
2023-05-22T10:59:20.321Z,1012.14
2023-05-22T11:01:05.304Z,1012.19
2023-05-22T11:02:50.356Z,1012.14
2023-05-22T11:04:35.367Z,1012.13
2023-05-22T11:06:20.328Z,1012.11
2023-05-22T11:08:05.401Z,1012.02
2023-05-22T11:09:50.488Z,1012.09
2023-05-22T11:11:35.323Z,1012.01
2023-05-22T11:13:20.387Z,1011.99
2023-05-22T11:15:05.355Z,1012.01
2023-05-22T11:16:50.365Z,1012.04
2023-05-22T11:18:35.343Z,1012
2023-05-22T11:20:20.359Z,1012
2023-05-22T11:22:05.329Z,1012.01
2023-05-22T11:23:50.387Z,1011.95
2023-05-22T11:25:35.470Z,1011.96
2023-05-22T11:27:20.367Z,1011.9
2023-05-22T11:29:05.732Z,1011.95
2023-05-22T11:30:50.439Z,1011.94
2023-05-22T11:32:35.418Z,1011.81
2023-05-22T11:34:20.406Z,1011.91
2023-05-22T11:36:05.374Z,1011.83
2023-05-22T11:37:50.353Z,1011.84
2023-05-22T11:39:35.424Z,1011.86
2023-05-22T11:41:20.513Z,1011.84
2023-05-22T11:43:05.380Z,1011.77
2023-05-22T11:44:50.453Z,1011.7
2023-05-22T11:46:36.049Z,1011.82
2023-05-22T11:48:20.368Z,1011.78
2023-05-22T11:50:05.428Z,1011.7
2023-05-22T11:51:50.406Z,1011.76
2023-05-22T11:53:35.392Z,1011.79
2023-05-22T11:55:20.443Z,1011.71
2023-05-22T11:57:05.547Z,1011.7
2023-05-22T11:58:50.393Z,1011.79
2023-05-22T12:00:35.458Z,1011.68
2023-05-22T12:02:20.417Z,1011.64
2023-05-22T12:04:05.515Z,1011.64
2023-05-22T12:05:50.465Z,1011.68
2023-05-22T12:07:35.730Z,1011.64
2023-05-22T12:09:20.426Z,1011.59
2023-05-22T12:11:05.459Z,1011.68
2023-05-22T12:12:50.562Z,1011.75
2023-05-22T12:14:35.433Z,1011.7
2023-05-22T12:16:20.497Z,1011.67
2023-05-22T12:18:05.439Z,1011.61
2023-05-22T12:19:50.449Z,1011.59
2023-05-22T12:21:35.463Z,1011.64
2023-05-22T12:23:20.750Z,1011.52
2023-05-22T12:25:05.475Z,1011.59
2023-05-22T12:26:50.503Z,1011.63
2023-05-22T12:28:35.473Z,1011.62
2023-05-22T12:30:20.458Z,1011.59
2023-05-22T12:32:05.493Z,1011.62
2023-05-22T12:33:50.443Z,1011.53
2023-05-22T12:35:35.463Z,1011.55
2023-05-22T12:37:20.460Z,1011.49
2023-05-22T12:39:05.492Z,1011.54
2023-05-22T12:40:50.465Z,1011.45
2023-05-22T12:42:35.530Z,1011.57
2023-05-22T12:44:20.584Z,1011.51
2023-05-22T12:46:05.496Z,1011.44
2023-05-22T12:47:50.521Z,1011.46
2023-05-22T12:49:35.483Z,1011.49
2023-05-22T12:51:20.497Z,1011.47
2023-05-22T12:53:05.522Z,1011.38
2023-05-22T12:54:50.492Z,1011.34
2023-05-22T12:56:35.499Z,1011.41
2023-05-22T12:58:20.507Z,1011.37
2023-05-22T13:00:05.621Z,1011.37
2023-05-22T13:01:50.532Z,1011.44
2023-05-22T13:03:35.542Z,1011.38
2023-05-22T13:05:20.594Z,1011.31
2023-05-22T13:07:05.486Z,1011.3
2023-05-22T13:08:50.523Z,1011.37
2023-05-22T13:10:35.548Z,1011.37
2023-05-22T13:12:20.537Z,1011.42
2023-05-22T13:14:05.557Z,1011.38
2023-05-22T13:15:50.694Z,1011.36
2023-05-22T13:17:35.585Z,1011.47
2023-05-22T13:19:20.600Z,1011.41
2023-05-22T13:21:05.537Z,1011.38
2023-05-22T13:22:50.828Z,1011.42
2023-05-22T13:24:35.589Z,1011.33
2023-05-22T13:26:20.540Z,1011.29
2023-05-22T13:28:05.510Z,1011.28
2023-05-22T13:29:50.573Z,1011.26
2023-05-22T13:31:35.699Z,1011.24
2023-05-22T13:33:20.531Z,1011.25
2023-05-22T13:35:05.634Z,1011.25
2023-05-22T13:36:50.578Z,1011.26
2023-05-22T13:38:35.559Z,1011.25
2023-05-22T13:40:20.578Z,1011.24
2023-05-22T13:42:05.594Z,1011.22
2023-05-22T13:43:50.607Z,1011.2
2023-05-22T13:45:35.635Z,1011.24
2023-05-22T13:47:20.730Z,1011.27
2023-05-22T13:49:05.586Z,1011.22
2023-05-22T13:50:50.625Z,1011.24
2023-05-22T13:52:35.607Z,1011.2
2023-05-22T13:54:20.592Z,1011.18
2023-05-22T13:56:05.640Z,1011.22
2023-05-22T13:57:50.614Z,1011.27
2023-05-22T13:59:35.579Z,1011.15
2023-05-22T14:01:20.954Z,1011.22
2023-05-22T14:03:06.395Z,1011.2
2023-05-22T14:04:50.637Z,1011.23
2023-05-22T14:06:35.599Z,1011.26
2023-05-22T14:08:20.584Z,1011.15
2023-05-22T14:10:05.582Z,1011.18
2023-05-22T14:11:50.659Z,1011.23
2023-05-22T14:13:35.603Z,1011.21
2023-05-22T14:15:21.597Z,1011.22
2023-05-22T14:17:05.717Z,1011.32
2023-05-22T14:18:50.810Z,1011.19
2023-05-22T14:20:35.601Z,1011.21
2023-05-22T14:22:20.697Z,1011.26
2023-05-22T14:24:05.646Z,1011.29
2023-05-22T14:25:50.624Z,1011.28
2023-05-22T14:27:35.654Z,1011.23
2023-05-22T14:29:20.660Z,1011.39
2023-05-22T14:31:05.621Z,1011.33
2023-05-22T14:32:50.716Z,1011.26
2023-05-22T14:34:35.806Z,1011.3
2023-05-22T14:36:20.629Z,1011.36
2023-05-22T14:38:05.725Z,1011.32
2023-05-22T14:39:50.656Z,1011.2
2023-05-22T14:41:35.630Z,1011.37
2023-05-22T14:43:20.692Z,1011.17
2023-05-22T14:45:05.702Z,1011.25
2023-05-22T14:46:50.692Z,1011.21
2023-05-22T14:48:35.711Z,1011.13
2023-05-22T14:50:21.086Z,1011.2
2023-05-22T14:52:05.680Z,1011.13
2023-05-22T14:53:50.724Z,1011.16
2023-05-22T14:55:35.669Z,1011.21
2023-05-22T14:57:20.695Z,1011.19
2023-05-22T14:59:06.002Z,1011.18
2023-05-22T15:00:50.694Z,1011.13
2023-05-22T15:02:36.034Z,1011.09
2023-05-22T15:04:21.107Z,1011.11
2023-05-22T15:06:05.837Z,1011.1
2023-05-22T15:07:51.652Z,1011.05
2023-05-22T15:09:35.727Z,1011.05
2023-05-22T15:11:20.683Z,1011.03
2023-05-22T15:13:05.732Z,1011.14
2023-05-22T15:14:50.717Z,1010.95
2023-05-22T15:16:35.704Z,1011.01
2023-05-22T15:18:20.694Z,1011.05
2023-05-22T15:20:05.739Z,1011.03
2023-05-22T15:21:50.824Z,1011.01
2023-05-22T15:23:35.710Z,1010.91
2023-05-22T15:25:20.775Z,1010.95
2023-05-22T15:27:05.719Z,1010.87
2023-05-22T15:28:50.716Z,1010.9
2023-05-22T15:30:35.768Z,1010.93
2023-05-22T15:32:20.726Z,1010.87
2023-05-22T15:34:05.765Z,1010.9
2023-05-22T15:35:50.756Z,1010.87
2023-05-22T15:37:35.851Z,1010.86
2023-05-22T15:39:20.764Z,1010.89
2023-05-22T15:41:05.768Z,1010.85
2023-05-22T15:42:50.744Z,1010.76
2023-05-22T15:44:35.721Z,1010.8
2023-05-22T15:46:20.782Z,1010.81
2023-05-22T15:48:05.780Z,1010.8
2023-05-22T15:49:50.729Z,1010.78
2023-05-22T15:51:35.798Z,1010.81
2023-05-22T15:53:20.867Z,1010.75
2023-05-22T15:55:05.768Z,1010.85
2023-05-22T15:56:50.793Z,1010.8
2023-05-22T15:58:35.788Z,1010.76
2023-05-22T16:00:20.789Z,1010.75
2023-05-22T16:02:05.835Z,1010.75
2023-05-22T16:03:50.841Z,1010.7
2023-05-22T16:05:35.782Z,1010.73
2023-05-22T16:07:20.841Z,1010.78
2023-05-22T16:09:06.219Z,1010.7
2023-05-22T16:10:50.791Z,1010.81
2023-05-22T16:12:35.796Z,1010.86
2023-05-22T16:14:20.745Z,1010.78
2023-05-22T16:16:05.824Z,1010.81
2023-05-22T16:17:50.889Z,1010.88
2023-05-22T16:19:35.921Z,1010.83
2023-05-22T16:21:20.798Z,1010.96
2023-05-22T16:23:05.802Z,1010.99
2023-05-22T16:24:50.898Z,1011.15
2023-05-22T16:26:35.771Z,1011.28
2023-05-22T16:28:20.871Z,1011.3
2023-05-22T16:30:06.436Z,1011.31
2023-05-22T16:31:50.832Z,1011.36
2023-05-22T16:33:35.834Z,1011.3
2023-05-22T16:35:20.792Z,1011.45
2023-05-22T16:37:05.820Z,1011.45
2023-05-22T16:38:50.887Z,1011.45
2023-05-22T16:40:35.919Z,1011.48
2023-05-22T16:42:20.832Z,1011.5
2023-05-22T16:44:05.887Z,1011.53
2023-05-22T16:45:50.832Z,1011.46
2023-05-22T16:47:36.177Z,1011.45
2023-05-22T16:49:20.904Z,1011.57
2023-05-22T16:51:05.811Z,1011.5
2023-05-22T16:52:50.814Z,1011.59
2023-05-22T16:54:35.887Z,1011.64
2023-05-22T16:56:21.018Z,1011.72
2023-05-22T16:58:05.850Z,1011.6
2023-05-22T16:59:50.946Z,1011.59
2023-05-22T17:01:35.867Z,1011.57
2023-05-22T17:03:20.957Z,1011.64
2023-05-22T17:05:05.890Z,1011.65
2023-05-22T17:06:50.869Z,1011.75
2023-05-22T17:08:35.874Z,1011.68
2023-05-22T17:10:20.882Z,1011.65
2023-05-22T17:12:05.987Z,1011.72
2023-05-22T17:13:50.862Z,1011.8
2023-05-22T17:15:35.926Z,1011.8
2023-05-22T17:17:20.880Z,1011.73
2023-05-22T17:19:05.879Z,1011.68
2023-05-22T17:20:50.893Z,1011.75
2023-05-22T17:22:35.851Z,1011.69
2023-05-22T17:24:20.870Z,1011.61
2023-05-22T17:26:05.935Z,1011.7
2023-05-22T17:27:51.005Z,1011.64
2023-05-22T17:29:35.909Z,1011.67
2023-05-22T17:31:20.977Z,1011.7
2023-05-22T17:33:05.937Z,1011.71
2023-05-22T17:34:50.882Z,1011.8
2023-05-22T17:36:35.979Z,1011.75
2023-05-22T17:38:20.885Z,1011.85
2023-05-22T17:40:05.900Z,1011.88
2023-05-22T17:41:50.946Z,1011.87
2023-05-22T17:43:36.035Z,1011.81
2023-05-22T17:45:20.914Z,1011.82
2023-05-22T17:47:05.960Z,1011.87
2023-05-22T17:48:50.928Z,1011.94
2023-05-22T17:50:35.938Z,1011.92
2023-05-22T17:52:20.954Z,1011.97
2023-05-22T17:54:05.899Z,1011.87
2023-05-22T17:55:50.935Z,1011.93
2023-05-22T17:57:35.981Z,1012.06
2023-05-22T17:59:21.090Z,1012.04
2023-05-22T18:01:05.969Z,1012.01
2023-05-22T18:02:51.073Z,1011.99
2023-05-22T18:04:35.946Z,1011.97
2023-05-22T18:06:23.942Z,1012
2023-05-22T18:08:06.025Z,1011.98
2023-05-22T18:09:50.953Z,1012.04
2023-05-22T18:11:35.955Z,1012.18
2023-05-22T18:13:20.989Z,1012.02
2023-05-22T18:15:06.094Z,1012.03
2023-05-22T18:16:50.952Z,1011.97
2023-05-22T18:18:35.968Z,1012.01
2023-05-22T18:20:20.988Z,1011.99
2023-05-22T18:22:05.945Z,1012.02
2023-05-22T18:23:50.999Z,1012.01
2023-05-22T18:25:36.020Z,1012.09
2023-05-22T18:27:20.990Z,1012.1
2023-05-22T18:29:05.998Z,1012.15
2023-05-22T18:30:51.078Z,1012.17
2023-05-22T18:32:36.041Z,1012.26
2023-05-22T18:34:21.074Z,1012.24
2023-05-22T18:36:05.979Z,1012.24
2023-05-22T18:37:51.039Z,1012.31
2023-05-22T18:39:36.030Z,1012.26
2023-05-22T18:41:20.998Z,1012.32
2023-05-22T18:43:06.018Z,1012.28
2023-05-22T18:44:51.059Z,1012.31
2023-05-22T18:46:36.163Z,1012.25
2023-05-22T18:48:21.288Z,1012.24
2023-05-22T18:50:06.065Z,1012.29
2023-05-22T18:51:51.004Z,1012.37
2023-05-22T18:53:35.999Z,1012.43
2023-05-22T18:55:21.083Z,1012.4
2023-05-22T18:57:06.034Z,1012.51
2023-05-22T18:58:51.001Z,1012.54
2023-05-22T19:00:36.075Z,1012.53
2023-05-22T19:02:21.174Z,1012.64
2023-05-22T19:04:06.036Z,1012.62
2023-05-22T19:05:51.085Z,1012.7
2023-05-22T19:07:36.064Z,1012.71
2023-05-22T19:09:21.041Z,1012.61
2023-05-22T19:11:06.065Z,1012.68
2023-05-22T19:12:51.048Z,1012.69
2023-05-22T19:14:36.041Z,1012.8
2023-05-22T19:16:21.154Z,1012.8
2023-05-22T19:18:06.215Z,1012.78
2023-05-22T19:19:51.038Z,1012.87
2023-05-22T19:21:36.139Z,1012.74
2023-05-22T19:23:21.044Z,1012.78
2023-05-22T19:25:06.055Z,1012.83
2023-05-22T19:26:51.123Z,1012.78
2023-05-22T19:28:36.079Z,1012.88
2023-05-22T19:30:21.037Z,1012.93
2023-05-22T19:32:06.152Z,1012.89
2023-05-22T19:33:51.496Z,1012.96
2023-05-22T19:35:36.064Z,1013.06
2023-05-22T19:37:21.082Z,1012.98
2023-05-22T19:39:06.084Z,1013.05
2023-05-22T19:40:51.084Z,1013.08
2023-05-22T19:42:36.122Z,1013.13
2023-05-22T19:44:21.103Z,1013.07
2023-05-22T19:46:07.929Z,1013.11
2023-05-22T19:47:51.153Z,1013.06
2023-05-22T19:49:36.263Z,1013.12
2023-05-22T19:53:23.986Z,1013.23
2023-05-22T19:55:08.930Z,1013.26
2023-05-22T19:56:53.890Z,1013.29
2023-05-22T19:58:38.948Z,1013.25
2023-05-22T20:00:23.944Z,1013.3
2023-05-22T20:02:08.959Z,1013.3
2023-05-22T20:03:54.110Z,1013.36
2023-05-22T20:05:39.207Z,1013.37
2023-05-22T20:07:24.235Z,1013.37
2023-05-22T20:09:08.983Z,1013.48
2023-05-22T20:10:53.960Z,1013.42
2023-05-22T20:12:38.934Z,1013.42
2023-05-22T20:14:23.958Z,1013.52
2023-05-22T20:16:08.952Z,1013.57
2023-05-22T20:17:54.045Z,1013.62
2023-05-22T20:19:39.011Z,1013.58
2023-05-22T20:21:24.079Z,1013.61
2023-05-22T20:23:08.968Z,1013.71
2023-05-22T20:24:53.980Z,1013.64
2023-05-22T20:26:38.941Z,1013.57
2023-05-22T20:28:23.944Z,1013.62
2023-05-22T20:30:09.010Z,1013.65
2023-05-22T20:31:54.076Z,1013.73
2023-05-22T20:33:38.973Z,1013.8
2023-05-22T20:35:24.096Z,1013.76
2023-05-22T20:37:09.122Z,1013.8
2023-05-22T20:38:53.977Z,1013.86
2023-05-22T20:40:39.027Z,1013.88
2023-05-22T20:42:23.995Z,1013.84
2023-05-22T20:44:09.036Z,1013.77
2023-05-22T20:45:54.060Z,1013.9
2023-05-22T20:47:39.070Z,1013.87
2023-05-22T20:49:24.000Z,1013.98
2023-05-22T20:51:09.729Z,1013.97
2023-05-22T20:52:54.155Z,1013.88
2023-05-22T20:54:39.009Z,1014.01
2023-05-22T20:56:24.079Z,1013.97
2023-05-22T20:58:09.025Z,1013.99
2023-05-22T20:59:54.017Z,1013.97
2023-05-22T21:01:39.118Z,1014.05
2023-05-22T21:03:25.737Z,1014.06
2023-05-22T21:05:09.015Z,1014.01
2023-05-22T21:06:54.054Z,1013.99
2023-05-22T21:08:39.125Z,1014.01
2023-05-22T21:10:24.042Z,1013.98
2023-05-22T21:12:09.093Z,1014.06
2023-05-22T21:13:54.012Z,1014.05
2023-05-22T21:15:39.068Z,1014.07
2023-05-22T21:17:24.234Z,1014.07
2023-05-22T21:19:09.015Z,1014.01